Time;durP1;ratioP1;P1;durP2;ratioP2;P2;SDS_P1;SDS_P2;PMS_P1;PMS_P2;Temp;Humidity;BMP_temperature;BMP_pressure;BME280_temperature;BME280_humidity;BME280_pressure;Samples;Min_cycle;Max_cycle;Signal;HPM_P1;HPM_P2
2022/04/04 00:01:59;;;;;;;4.07;2.63;;;4.30;65.90;;;;;;9186161;19;20371;-63
2022/04/04 00:05:05;;;;;;;4.05;2.60;;;4.30;66.00;;;;;;9186349;19;20474;-63
2022/04/04 00:08:10;;;;;;;8.48;3.15;;;4.20;66.00;;;;;;9182665;19;20021;-64
2022/04/04 00:11:15;;;;;;;6.63;2.40;;;4.20;66.00;;;;;;9186035;19;20017;-64
2022/04/04 00:14:21;;;;;;;4.78;2.53;;;4.20;66.00;;;;;;9186117;19;20021;-63
2022/04/04 00:17:28;;;;;;;4.45;3.08;;;4.20;66.10;;;;;;9183527;19;20395;-64
2022/04/04 00:20:34;;;;;;;6.85;2.50;;;4.20;66.10;;;;;;9183802;19;20590;-64
2022/04/04 00:23:39;;;;;;;7.38;2.75;;;4.10;66.10;;;;;;9184172;19;20395;-63
2022/04/04 00:26:44;;;;;;;6.75;2.40;;;4.10;66.10;;;;;;9184515;19;20014;-64
2022/04/04 00:29:49;;;;;;;5.85;2.63;;;4.10;66.30;;;;;;9181281;19;20479;-63
2022/04/04 00:32:57;;;;;;;7.60;4.25;;;4.00;66.20;;;;;;9181977;19;20019;-64
2022/04/04 00:36:02;;;;;;;3.97;2.53;;;4.00;66.30;;;;;;9182526;19;20022;-63
2022/04/04 00:39:07;;;;;;;9.55;3.17;;;4.00;66.40;;;;;;9182281;19;20078;-64
2022/04/04 00:42:12;;;;;;;4.75;3.20;;;4.00;66.30;;;;;;9183192;19;20113;-64
2022/04/04 00:45:18;;;;;;;5.05;2.75;;;4.00;66.40;;;;;;9182549;19;20010;-63
2022/04/04 00:48:25;;;;;;;4.90;2.95;;;4.00;66.40;;;;;;9183093;19;20375;-63
2022/04/04 00:51:30;;;;;;;5.80;3.08;;;4.00;66.50;;;;;;9180180;19;20017;-63
2022/04/04 00:54:36;;;;;;;7.10;3.05;;;3.90;66.40;;;;;;9181515;19;20337;-63
2022/04/04 00:57:41;;;;;;;8.80;3.25;;;3.90;66.50;;;;;;9180420;19;20022;-64
2022/04/04 01:00:47;;;;;;;7.47;3.38;;;3.90;66.50;;;;;;9182308;19;20029;-63
2022/04/04 01:03:55;;;;;;;9.73;3.67;;;3.90;66.60;;;;;;9181282;19;20472;-64
2022/04/04 01:07:01;;;;;;;3.95;3.00;;;3.80;66.60;;;;;;9183130;19;20011;-63
2022/04/04 01:10:08;;;;;;;6.18;3.25;;;3.80;66.60;;;;;;9180615;19;20059;-63
2022/04/04 01:13:14;;;;;;;6.38;3.25;;;3.80;66.60;;;;;;9184451;19;20011;-63
2022/04/04 01:16:20;;;;;;;7.82;3.80;;;3.80;66.60;;;;;;9183190;19;20108;-63
2022/04/04 01:19:28;;;;;;;7.35;3.15;;;3.80;66.70;;;;;;9182176;19;20019;-64
2022/04/04 01:22:33;;;;;;;11.63;3.97;;;3.80;66.80;;;;;;9183226;19;20410;-63
2022/04/04 01:25:40;;;;;;;7.05;4.03;;;3.70;66.80;;;;;;9183609;19;20025;-64
2022/04/04 01:28:45;;;;;;;12.52;4.50;;;3.70;66.90;;;;;;9181116;19;20015;-63
2022/04/04 01:31:52;;;;;;;9.95;4.50;;;3.70;66.90;;;;;;9182780;19;20015;-64
2022/04/04 01:34:57;;;;;;;6.20;4.18;;;3.70;67.00;;;;;;9180985;19;20018;-64
2022/04/04 01:38:02;;;;;;;6.20;4.38;;;3.70;67.00;;;;;;9182362;19;20018;-64
2022/04/04 01:41:10;;;;;;;9.57;4.82;;;3.70;67.10;;;;;;9182193;19;20023;-64
2022/04/04 01:44:15;;;;;;;7.70;4.88;;;3.70;67.20;;;;;;9190616;19;20018;-63
2022/04/04 01:47:20;;;;;;;11.70;4.32;;;3.70;67.20;;;;;;9188476;19;20636;-64
2022/04/04 01:50:26;;;;;;;7.82;5.07;;;3.70;67.20;;;;;;9186514;19;20015;-63
2022/04/04 01:53:32;;;;;;;11.90;5.22;;;3.70;67.30;;;;;;9182387;19;20022;-64
2022/04/04 01:56:41;;;;;;;8.30;5.03;;;3.70;67.30;;;;;;9191706;19;20011;-64
2022/04/04 01:59:46;;;;;;;12.80;5.50;;;3.70;67.40;;;;;;9190836;19;20308;-63
2022/04/04 02:02:51;;;;;;;9.82;5.75;;;3.80;67.40;;;;;;9190276;19;20018;-63
2022/04/04 02:05:57;;;;;;;11.50;5.78;;;3.70;67.40;;;;;;9188924;19;20015;-64
2022/04/04 02:09:02;;;;;;;12.77;5.75;;;3.80;67.50;;;;;;9187567;19;20472;-63
2022/04/04 02:12:11;;;;;;;13.10;6.10;;;3.80;67.50;;;;;;9188989;19;20022;-64
2022/04/04 02:15:16;;;;;;;9.68;5.95;;;3.80;67.60;;;;;;9191342;19;20006;-65
2022/04/04 02:18:22;;;;;;;12.88;6.32;;;3.80;67.60;;;;;;9188573;19;20387;-63
2022/04/04 02:21:28;;;;;;;11.15;5.72;;;3.80;67.60;;;;;;9189783;19;20018;-63
2022/04/04 02:24:34;;;;;;;12.20;5.85;;;3.80;67.60;;;;;;9190172;19;20193;-64
2022/04/04 02:27:42;;;;;;;17.95;6.00;;;3.90;67.70;;;;;;9190361;19;20014;-63
2022/04/04 02:30:49;;;;;;;10.82;5.93;;;3.90;67.80;;;;;;9187035;19;20015;-64
2022/04/04 02:33:54;;;;;;;11.70;6.43;;;3.90;67.80;;;;;;9189668;19;20027;-64
2022/04/04 02:37:00;;;;;;;11.63;5.53;;;3.90;67.80;;;;;;9187704;19;20081;-64
2022/04/04 02:40:06;;;;;;;9.77;5.88;;;3.90;67.80;;;;;;9187579;19;20479;-64
2022/04/04 02:43:14;;;;;;;10.48;6.43;;;3.90;67.80;;;;;;9188247;19;20126;-64
2022/04/04 02:46:19;;;;;;;10.35;6.03;;;3.90;67.90;;;;;;9187801;19;20039;-63
2022/04/04 02:49:25;;;;;;;10.40;6.18;;;3.90;67.90;;;;;;9184503;19;20018;-63
2022/04/04 02:52:30;;;;;;;11.65;6.30;;;3.90;67.90;;;;;;9182197;19;20018;-63
2022/04/04 02:58:55;;;;;;;12.13;6.65;;;4.00;68.00;;;;;;9187724;19;20352;-64
2022/04/04 03:02:00;;;;;;;11.85;6.32;;;4.00;68.00;;;;;;9188993;19;20026;-64
2022/04/04 03:05:06;;;;;;;11.70;6.65;;;4.00;68.00;;;;;;9186486;19;20104;-64
2022/04/04 03:08:11;;;;;;;10.93;6.00;;;4.00;68.00;;;;;;9185358;19;20039;-64
2022/04/04 03:11:18;;;;;;;12.85;6.65;;;4.00;68.10;;;;;;9184943;19;20093;-63
2022/04/04 03:14:26;;;;;;;13.35;6.47;;;4.00;68.00;;;;;;9186677;19;20483;-63
2022/04/04 03:17:31;;;;;;;10.20;6.10;;;4.00;68.10;;;;;;9186406;19;20017;-63
2022/04/04 03:20:36;;;;;;;12.70;6.05;;;4.00;68.10;;;;;;9186009;19;20017;-62
2022/04/04 03:23:42;;;;;;;13.70;6.22;;;4.00;68.10;;;;;;9185111;19;20468;-64
2022/04/04 03:26:47;;;;;;;13.93;7.03;;;4.00;68.10;;;;;;9186142;19;20348;-63
2022/04/04 03:29:54;;;;;;;12.90;6.40;;;4.00;68.10;;;;;;9185745;19;20010;-63
2022/04/04 03:33:00;;;;;;;12.85;5.97;;;4.00;68.20;;;;;;9185395;19;20018;-65
2022/04/04 03:36:06;;;;;;;13.88;6.80;;;4.00;68.20;;;;;;9187756;19;20018;-63
2022/04/04 03:39:13;;;;;;;12.05;6.50;;;4.00;68.20;;;;;;9186510;19;20022;-64
2022/04/04 03:42:19;;;;;;;10.13;5.75;;;4.10;68.20;;;;;;9185418;19;20034;-63
2022/04/04 03:45:27;;;;;;;15.70;6.90;;;4.10;68.30;;;;;;9182460;19;20002;-63
2022/04/04 03:48:32;;;;;;;13.93;6.30;;;4.10;68.30;;;;;;9187642;19;20015;-63
2022/04/04 03:51:37;;;;;;;11.27;6.10;;;4.10;68.30;;;;;;9179674;19;20014;-63
2022/04/04 03:54:43;;;;;;;14.23;6.85;;;4.10;68.30;;;;;;9185924;19;20018;-64
2022/04/04 03:57:49;;;;;;;10.95;6.78;;;4.10;68.30;;;;;;9186806;19;20018;-62
2022/04/04 04:00:57;;;;;;;11.43;7.03;;;4.10;68.30;;;;;;9185713;19;20030;-63
2022/04/04 04:04:02;;;;;;;13.77;5.90;;;4.10;68.30;;;;;;9183158;19;20029;-64
2022/04/04 04:07:10;;;;;;;11.27;7.10;;;4.10;68.30;;;;;;9183954;19;20018;-64
2022/04/04 04:10:16;;;;;;;11.77;7.25;;;4.10;68.30;;;;;;9182927;19;20042;-63
2022/04/04 04:13:21;;;;;;;9.93;6.13;;;4.20;68.30;;;;;;9186379;19;20011;-63
2022/04/04 04:16:29;;;;;;;12.75;6.22;;;4.20;68.40;;;;;;9184065;19;20010;-63
2022/04/04 04:22:56;;;;;;;12.25;7.28;;;4.20;68.30;;;;;;9183672;19;20019;-64
2022/04/04 04:26:01;;;;;;;11.27;6.90;;;4.20;68.30;;;;;;9186018;19;20039;-64
2022/04/04 04:29:06;;;;;;;12.57;7.22;;;4.20;68.30;;;;;;9186318;19;20015;-63
2022/04/04 04:32:14;;;;;;;11.15;7.05;;;4.30;68.40;;;;;;9180610;19;20025;-64
2022/04/04 04:35:20;;;;;;;11.20;7.95;;;4.30;68.40;;;;;;9183181;19;20086;-64
2022/04/04 04:38:25;;;;;;;12.07;6.65;;;4.30;68.30;;;;;;9184366;19;20026;-63
2022/04/04 04:41:30;;;;;;;14.30;7.45;;;4.30;68.30;;;;;;9182996;19;20329;-63
2022/04/04 04:44:35;;;;;;;13.52;7.78;;;4.30;68.30;;;;;;9183076;19;20030;-63
2022/04/04 04:47:43;;;;;;;15.00;7.60;;;4.30;68.30;;;;;;9182241;19;20049;-64
2022/04/04 04:50:49;;;;;;;16.42;8.13;;;4.30;68.40;;;;;;9178080;19;20025;-65
2022/04/04 04:53:54;;;;;;;14.80;7.45;;;4.30;68.30;;;;;;9183523;19;20025;-64
2022/04/04 04:57:00;;;;;;;15.57;7.55;;;4.30;68.30;;;;;;9184306;19;20014;-64
2022/04/04 05:00:08;;;;;;;15.02;7.35;;;4.40;68.40;;;;;;9181396;19;20011;-63
2022/04/04 05:03:27;;;;;;;14.95;7.95;;;4.40;68.40;;;;;;9183213;19;20082;-63
2022/04/04 05:06:32;;;;;;;18.45;8.00;;;4.40;68.30;;;;;;9183294;19;20014;-63
2022/04/04 05:09:37;;;;;;;13.23;7.03;;;4.40;68.30;;;;;;9180041;19;20010;-63
2022/04/04 05:12:42;;;;;;;15.20;8.15;;;4.40;68.30;;;;;;9181629;19;20048;-63
2022/04/04 05:15:47;;;;;;;15.50;7.63;;;4.40;68.40;;;;;;9180554;19;20025;-63
2022/04/04 05:18:55;;;;;;;18.70;7.93;;;4.50;68.40;;;;;;9183134;19;20018;-63
2022/04/04 05:22:00;;;;;;;14.80;8.40;;;4.50;68.40;;;;;;9183021;19;20468;-63
2022/04/04 05:25:06;;;;;;;17.15;8.25;;;4.50;68.40;;;;;;9181746;19;20011;-63
2022/04/04 05:28:11;;;;;;;16.80;6.97;;;4.50;68.40;;;;;;9181295;19;20022;-64
2022/04/04 05:31:16;;;;;;;16.33;7.28;;;4.50;68.30;;;;;;9181402;19;20015;-64
2022/04/04 05:34:26;;;;;;;12.00;6.97;;;4.60;68.40;;;;;;9181566;19;20056;-62
2022/04/04 05:37:36;;;;;;;16.30;7.97;;;4.60;68.40;;;;;;9180982;19;20013;-63
2022/04/04 05:40:41;;;;;;;15.77;7.22;;;4.60;68.40;;;;;;9181097;19;20467;-63
2022/04/04 05:43:47;;;;;;;15.27;6.78;;;4.70;68.40;;;;;;9183422;19;20018;-64
2022/04/04 05:46:52;;;;;;;12.13;7.00;;;4.70;68.40;;;;;;9182344;19;20506;-63
2022/04/04 05:49:59;;;;;;;18.02;7.38;;;4.70;68.40;;;;;;9180536;19;20022;-63
2022/04/04 05:53:04;;;;;;;10.88;6.72;;;4.80;68.50;;;;;;9176437;19;20648;-63
2022/04/04 05:56:09;;;;;;;13.57;7.47;;;4.80;68.40;;;;;;9180518;19;20015;-63
2022/04/04 05:59:15;;;;;;;12.82;6.50;;;4.90;68.50;;;;;;9180588;19;20348;-62
2022/04/04 06:02:22;;;;;;;15.77;7.72;;;4.90;68.40;;;;;;9179441;19;20022;-64
2022/04/04 06:05:30;;;;;;;12.15;6.78;;;4.90;68.40;;;;;;9181813;19;20478;-63
2022/04/04 06:08:35;;;;;;;10.65;6.43;;;4.90;68.40;;;;;;9179916;19;20018;-63
2022/04/04 06:11:41;;;;;;;11.75;6.47;;;5.00;68.40;;;;;;9168003;19;20026;-64
2022/04/04 06:14:47;;;;;;;10.10;5.82;;;5.00;68.40;;;;;;9174927;19;20018;-64
2022/04/04 06:17:52;;;;;;;16.05;6.50;;;5.00;68.40;;;;;;9173484;19;20033;-63
2022/04/04 06:20:59;;;;;;;15.20;6.10;;;5.10;68.40;;;;;;9175867;19;20078;-64
2022/04/04 06:24:05;;;;;;;12.45;6.20;;;5.10;68.50;;;;;;9173751;19;20019;-65
2022/04/04 06:27:10;;;;;;;12.77;7.10;;;5.20;68.50;;;;;;9175841;19;20360;-63
2022/04/04 06:30:16;;;;;;;13.05;6.20;;;5.20;68.40;;;;;;9184368;19;20450;-64
2022/04/04 06:33:21;;;;;;;11.00;5.57;;;5.30;68.50;;;;;;9184149;19;20018;-63
2022/04/04 06:36:30;;;;;;;11.65;6.45;;;5.30;68.50;;;;;;9186704;19;20018;-63
2022/04/04 06:39:35;;;;;;;11.88;6.10;;;5.40;68.60;;;;;;9189199;19;20446;-63
2022/04/04 06:42:42;;;;;;;11.80;6.05;;;5.40;68.50;;;;;;9187599;19;20382;-64
2022/04/04 06:45:47;;;;;;;14.80;6.55;;;5.40;68.40;;;;;;9186467;19;20086;-64
2022/04/04 06:48:52;;;;;;;12.55;6.05;;;5.50;68.50;;;;;;9186516;19;20021;-64
2022/04/04 06:52:00;;;;;;;11.63;5.85;;;5.50;68.50;;;;;;9172932;19;20014;-64
2022/04/04 06:55:06;;;;;;;14.60;5.82;;;5.60;68.50;;;;;;9188694;19;20113;-64
2022/04/04 06:58:11;;;;;;;16.67;6.50;;;5.60;68.50;;;;;;9187370;19;20015;-63
2022/04/04 07:01:16;;;;;;;9.77;6.25;;;5.70;68.40;;;;;;9185549;19;20047;-64
2022/04/04 07:04:21;;;;;;;11.98;6.18;;;5.70;68.40;;;;;;9184310;19;20467;-63
2022/04/04 07:07:29;;;;;;;12.88;6.03;;;5.80;68.30;;;;;;9185327;19;20024;-63
2022/04/04 07:10:34;;;;;;;17.80;6.18;;;5.80;68.30;;;;;;9187214;19;20011;-63
2022/04/04 07:13:39;;;;;;;10.52;6.05;;;5.90;68.40;;;;;;9188288;19;20014;-63
2022/04/04 07:16:44;;;;;;;10.95;6.20;;;5.90;68.40;;;;;;9187049;19;20337;-64
2022/04/04 07:19:50;;;;;;;10.60;5.80;;;5.90;68.30;;;;;;9185345;19;20078;-64
2022/04/04 07:22:58;;;;;;;11.05;5.63;;;5.90;68.30;;;;;;9187492;19;20382;-64
2022/04/04 07:26:03;;;;;;;12.43;6.28;;;6.00;68.40;;;;;;9184352;19;20459;-64
2022/04/04 07:29:08;;;;;;;14.25;5.63;;;6.00;68.30;;;;;;9184791;19;20467;-64
2022/04/04 07:32:13;;;;;;;11.30;5.50;;;6.10;68.30;;;;;;9184940;19;20118;-65
2022/04/04 07:35:19;;;;;;;12.25;6.43;;;6.10;68.30;;;;;;9185210;19;20467;-64
2022/04/04 07:38:26;;;;;;;10.20;5.57;;;6.10;68.30;;;;;;9185203;19;20026;-63
2022/04/04 07:41:34;;;;;;;10.57;5.80;;;6.20;68.40;;;;;;9183025;19;20074;-64
2022/04/04 07:44:39;;;;;;;13.10;6.78;;;6.20;68.30;;;;;;9186003;19;20015;-65
2022/04/04 07:47:45;;;;;;;9.27;5.70;;;6.30;68.50;;;;;;9184989;19;20014;-64
2022/04/04 07:50:51;;;;;;;11.32;6.40;;;6.30;68.50;;;;;;9180116;19;20015;-64
2022/04/04 07:53:59;;;;;;;10.77;5.50;;;6.30;68.50;;;;;;9183784;19;20033;-65
2022/04/04 07:57:04;;;;;;;11.07;6.32;;;6.40;68.50;;;;;;9183805;19;20018;-63
2022/04/04 08:00:11;;;;;;;12.65;6.07;;;6.40;68.50;;;;;;9184609;19;20018;-63
2022/04/04 08:03:16;;;;;;;12.02;5.85;;;6.50;68.60;;;;;;9186271;19;20088;-64
2022/04/04 08:06:22;;;;;;;15.02;6.22;;;6.50;68.50;;;;;;9184160;19;20010;-63
2022/04/04 08:09:29;;;;;;;9.38;5.53;;;6.50;68.50;;;;;;9182553;19;20018;-64
2022/04/04 08:12:35;;;;;;;12.70;6.20;;;6.60;68.60;;;;;;9172853;19;20017;-64
2022/04/04 08:15:40;;;;;;;13.25;6.90;;;6.60;68.70;;;;;;9182203;19;20051;-63
2022/04/04 08:18:46;;;;;;;8.07;5.55;;;6.60;68.70;;;;;;9183409;19;20017;-64
2022/04/04 08:21:51;;;;;;;10.85;5.20;;;6.60;68.70;;;;;;9185754;19;20021;-63
2022/04/04 08:24:59;;;;;;;11.95;6.82;;;6.60;69.30;;;;;;9183444;19;20517;-64
2022/04/04 08:28:04;;;;;;;8.95;5.80;;;6.60;69.40;;;;;;9181494;19;20023;-64
2022/04/04 08:31:09;;;;;;;9.90;5.95;;;6.70;68.80;;;;;;9182106;19;20014;-63
2022/04/04 08:34:14;;;;;;;10.23;4.93;;;6.70;68.80;;;;;;9181811;19;20373;-64
2022/04/04 08:37:20;;;;;;;9.50;5.57;;;6.70;68.80;;;;;;9183396;19;20507;-64
2022/04/04 08:40:27;;;;;;;10.10;5.47;;;6.80;68.80;;;;;;9182065;19;20010;-64
2022/04/04 08:43:37;;;;;;;8.43;5.63;;;6.80;68.80;;;;;;9183629;19;20017;-64
2022/04/04 08:46:43;;;;;;;7.05;5.07;;;6.80;68.80;;;;;;9182314;19;20086;-64
2022/04/04 08:49:48;;;;;;;9.77;5.80;;;6.90;68.80;;;;;;9183917;19;20030;-64
2022/04/04 08:52:53;;;;;;;16.10;5.80;;;6.90;68.80;;;;;;9178162;19;20483;-64
2022/04/04 08:56:09;;;;;;;9.32;5.75;;;6.90;68.80;;;;;;9181359;19;20030;-63
2022/04/04 08:59:15;;;;;;;14.90;6.47;;;6.90;68.80;;;;;;9181820;19;20416;-63
2022/04/04 09:02:20;;;;;;;13.57;6.25;;;7.00;68.90;;;;;;9168601;19;20018;-63
2022/04/04 09:05:25;;;;;;;10.63;7.05;;;7.00;68.90;;;;;;9178593;19;20018;-63
2022/04/04 09:08:31;;;;;;;10.85;6.63;;;7.00;68.90;;;;;;9178975;19;20021;-63
2022/04/04 09:11:38;;;;;;;15.82;7.03;;;7.00;68.90;;;;;;9181942;19;20018;-63
2022/04/04 09:14:49;;;;;;;16.95;6.93;;;7.10;69.00;;;;;;9180562;19;20022;-63
2022/04/04 09:17:54;;;;;;;12.43;6.65;;;7.10;69.00;;;;;;9181835;19;20014;-63
2022/04/04 09:20:59;;;;;;;11.25;6.85;;;7.10;68.90;;;;;;9180176;19;20018;-64
2022/04/04 09:24:11;;;;;;;11.93;6.95;;;7.10;68.90;;;;;;9180071;19;20107;-63
2022/04/04 09:27:22;;;;;;;18.67;7.25;;;7.20;69.00;;;;;;9179421;19;20050;-63
2022/04/04 09:30:27;;;;;;;12.90;7.15;;;7.20;69.00;;;;;;9179365;19;20010;-63
2022/04/04 09:33:38;;;;;;;15.18;7.53;;;7.20;69.10;;;;;;9179296;19;20024;-64
2022/04/04 09:36:49;;;;;;;14.15;8.55;;;7.30;69.10;;;;;;9177186;19;20029;-64
2022/04/04 09:40:03;;;;;;;18.52;10.32;;;7.30;69.20;;;;;;9179034;19;20018;-64
2022/04/04 09:43:21;;;;;;;12.85;7.43;;;7.30;69.20;;;;;;9178264;19;20018;-65
2022/04/04 09:46:33;;;;;;;10.27;7.88;;;7.30;69.20;;;;;;9176426;19;20401;-65
2022/04/04 09:49:41;;;;;;;14.60;8.27;;;7.30;69.30;;;;;;9177285;19;20010;-64
2022/04/04 09:52:53;;;;;;;10.52;7.47;;;7.30;69.30;;;;;;9173948;19;20022;-62
2022/04/04 09:56:00;;;;;;;14.43;8.48;;;7.30;69.50;;;;;;9179895;19;20015;-64
2022/04/04 09:59:09;;;;;;;12.15;7.28;;;7.30;69.50;;;;;;9179822;19;20017;-64
2022/04/04 10:02:15;;;;;;;18.42;8.73;;;7.30;69.60;;;;;;9180059;19;20018;-64
2022/04/04 10:05:22;;;;;;;13.50;8.52;;;7.20;69.60;;;;;;9187738;19;20037;-64
2022/04/04 10:08:30;;;;;;;21.73;9.00;;;7.20;69.70;;;;;;9184929;19;20014;-64
2022/04/04 10:11:36;;;;;;;12.25;7.80;;;7.20;69.80;;;;;;9187390;19;20448;-65
2022/04/04 10:14:44;;;;;;;13.13;8.68;;;7.20;69.80;;;;;;9184734;19;20014;-63
2022/04/04 10:17:52;;;;;;;13.55;7.15;;;7.20;70.00;;;;;;9185714;19;20018;-63
2022/04/04 10:20:58;;;;;;;11.35;7.40;;;7.20;70.00;;;;;;9190289;19;20010;-62
2022/04/04 10:24:06;;;;;;;10.00;7.05;;;7.20;70.10;;;;;;9188724;19;20013;-63
2022/04/04 10:27:13;;;;;;;18.25;7.85;;;7.20;70.10;;;;;;9188803;19;20014;-62
2022/04/04 10:30:32;;;;;;;10.38;7.18;;;7.10;70.20;;;;;;9190156;19;20790;-63
2022/04/04 10:33:37;;;;;;;11.57;7.88;;;7.20;70.40;;;;;;9187889;19;20370;-63
2022/04/04 10:36:57;;;;;;;9.68;6.50;;;7.10;70.30;;;;;;9189073;19;20022;-63
2022/04/04 10:40:21;;;;;;;15.18;7.50;;;7.10;70.60;;;;;;9187437;19;20371;-63
2022/04/04 10:43:26;;;;;;;12.00;7.20;;;7.10;70.70;;;;;;9180182;19;20019;-63
2022/04/04 10:46:34;;;;;;;11.20;6.75;;;7.10;70.60;;;;;;9181877;19;20106;-64
2022/04/04 10:49:39;;;;;;;8.05;5.57;;;7.10;71.30;;;;;;9181132;19;20026;-63
2022/04/04 10:52:46;;;;;;;17.65;6.78;;;7.10;70.80;;;;;;9176679;19;20043;-63
2022/04/04 10:55:53;;;;;;;13.13;6.43;;;7.10;70.80;;;;;;9183871;19;20025;-63
2022/04/04 10:59:28;;;;;;;10.18;6.88;;;7.10;70.90;;;;;;9182134;19;20129;-63
2022/04/04 11:02:36;;;;;;;10.27;6.68;;;7.10;71.20;;;;;;9180905;19;20053;-64
2022/04/04 11:09:26;;;;;;;9.35;5.57;;;7.10;71.30;;;;;;9185108;19;20021;-63
2022/04/04 11:12:51;;;;;;;9.70;5.40;;;7.10;71.20;;;;;;9185999;19;20660;-63
2022/04/04 11:15:56;;;;;;;8.30;4.75;;;7.10;71.10;;;;;;9181025;19;20007;-63
2022/04/04 11:19:15;;;;;;;6.78;5.03;;;7.10;71.20;;;;;;9188238;19;20011;-63
2022/04/04 11:22:22;;;;;;;8.05;5.15;;;7.10;71.40;;;;;;9185701;19;20014;-63
2022/04/04 11:25:33;;;;;;;7.38;5.05;;;7.20;71.40;;;;;;9186060;19;20010;-63
2022/04/04 11:28:42;;;;;;;9.82;5.47;;;7.10;71.40;;;;;;9187253;19;20017;-63
2022/04/04 11:31:51;;;;;;;9.20;4.47;;;7.10;71.50;;;;;;9187361;19;20006;-63
2022/04/04 11:35:01;;;;;;;8.75;4.97;;;7.10;71.60;;;;;;9184909;19;20017;-63
2022/04/04 11:38:11;;;;;;;8.63;4.95;;;7.20;71.70;;;;;;9185664;19;20025;-63
2022/04/04 11:41:24;;;;;;;6.95;4.72;;;7.20;72.40;;;;;;9185195;19;20019;-62
2022/04/04 11:44:32;;;;;;;8.25;5.13;;;7.20;71.80;;;;;;9185290;19;20010;-63
2022/04/04 11:47:39;;;;;;;6.18;4.00;;;7.20;71.90;;;;;;9185546;19;20018;-63
2022/04/04 11:50:50;;;;;;;5.70;5.10;;;7.20;71.90;;;;;;9183328;19;20021;-62
2022/04/04 11:54:03;;;;;;;6.10;4.57;;;7.20;72.00;;;;;;9183016;19;20041;-63
2022/04/04 11:57:09;;;;;;;5.43;4.10;;;7.20;72.10;;;;;;9185786;19;20081;-62
2022/04/04 12:00:16;;;;;;;5.65;4.30;;;7.30;72.10;;;;;;9186513;19;20007;-63
2022/04/04 12:03:23;;;;;;;10.45;4.05;;;7.30;72.20;;;;;;9186856;19;20010;-62
2022/04/04 12:06:31;;;;;;;7.78;3.95;;;7.30;72.20;;;;;;9184457;19;20017;-62
2022/04/04 12:09:38;;;;;;;5.43;4.15;;;7.30;72.30;;;;;;9183200;19;20022;-62
2022/04/04 12:12:43;;;;;;;6.90;4.00;;;7.30;72.30;;;;;;9182864;19;20022;-62
2022/04/04 12:15:50;;;;;;;6.70;4.00;;;7.40;72.40;;;;;;9183406;19;20085;-63
2022/04/04 12:18:56;;;;;;;4.70;3.67;;;7.40;72.40;;;;;;9185282;19;20011;-62
2022/04/04 12:24:54;;;;;;;5.03;3.67;;;7.40;72.50;;;;;;9185992;19;20010;-63
2022/04/04 12:25:27;;;;;;;8.85;4.22;;;7.40;72.60;;;;;;9181841;19;20018;-62
2022/04/04 12:28:34;;;;;;;4.78;3.88;;;7.40;72.50;;;;;;9182082;19;20455;-63
2022/04/04 12:31:56;;;;;;;8.55;4.32;;;7.40;72.60;;;;;;9184373;19;20029;-62
2022/04/04 12:35:06;;;;;;;4.72;3.58;;;7.50;72.90;;;;;;9181490;19;20466;-62
2022/04/04 12:38:26;;;;;;;5.38;3.63;;;7.50;72.80;;;;;;9184948;19;20011;-63
2022/04/04 12:41:42;;;;;;;4.78;3.50;;;7.50;73.00;;;;;;9180932;19;20471;-62
2022/04/04 12:44:57;;;;;;;4.07;3.22;;;7.50;72.90;;;;;;9183881;19;20021;-62
2022/04/04 12:48:07;;;;;;;7.53;3.67;;;7.50;73.10;;;;;;9182054;19;20014;-62
2022/04/04 12:51:29;;;;;;;4.40;3.13;;;7.60;73.00;;;;;;9177925;19;20014;-62
2022/04/04 12:54:39;;;;;;;5.32;3.17;;;7.60;73.30;;;;;;9183406;19;20007;-62
2022/04/04 12:57:44;;;;;;;5.88;3.03;;;7.60;73.20;;;;;;9182190;19;20011;-62
2022/04/04 13:00:49;;;;;;;3.40;3.08;;;7.60;73.10;;;;;;9182247;19;20011;-63
2022/04/04 13:03:56;;;;;;;8.48;2.90;;;7.70;73.30;;;;;;9183416;19;20014;-62
2022/04/04 13:07:02;;;;;;;4.18;2.72;;;7.70;73.40;;;;;;9179843;19;20030;-62
2022/04/04 13:10:14;;;;;;;3.75;2.85;;;7.70;73.40;;;;;;9182266;19;20049;-62
2022/04/04 13:13:19;;;;;;;3.45;3.10;;;7.70;73.50;;;;;;9183217;19;20010;-62
2022/04/04 13:16:32;;;;;;;3.72;2.60;;;7.70;73.40;;;;;;9183245;19;20018;-62
2022/04/04 13:19:37;;;;;;;6.43;2.70;;;7.80;73.70;;;;;;9180703;19;20025;-62
2022/04/04 13:22:43;;;;;;;2.22;2.03;;;7.80;73.60;;;;;;9181656;19;20011;-63
2022/04/04 13:25:52;;;;;;;2.47;2.10;;;7.80;73.70;;;;;;9181426;19;20017;-62
2022/04/04 13:28:57;;;;;;;3.67;2.55;;;7.80;73.80;;;;;;9180795;19;20018;-62
2022/04/04 13:32:02;;;;;;;3.03;2.47;;;7.80;73.80;;;;;;9180417;19;20014;-62
2022/04/04 13:35:09;;;;;;;2.83;2.40;;;7.80;73.90;;;;;;9178865;19;20013;-63
2022/04/04 13:38:14;;;;;;;4.13;2.60;;;7.90;74.00;;;;;;9179014;19;20362;-62
2022/04/04 13:41:22;;;;;;;2.30;2.10;;;7.90;74.00;;;;;;9180608;19;20018;-62
2022/04/04 13:44:27;;;;;;;2.35;2.15;;;7.90;74.80;;;;;;9179942;19;20019;-62
2022/04/04 13:47:32;;;;;;;7.70;3.08;;;8.00;74.20;;;;;;9182372;19;20018;-62
2022/04/04 13:50:37;;;;;;;4.35;2.15;;;8.00;74.20;;;;;;9180459;19;20479;-62
2022/04/04 13:53:42;;;;;;;2.45;2.20;;;8.00;74.30;;;;;;9176027;19;20018;-62
2022/04/04 13:56:50;;;;;;;3.05;2.20;;;8.00;74.30;;;;;;9180437;19;20171;-61
2022/04/04 13:59:56;;;;;;;3.63;2.60;;;8.10;74.50;;;;;;9182323;19;20018;-61
2022/04/04 14:03:01;;;;;;;4.55;2.45;;;8.10;74.50;;;;;;9180178;19;20030;-62
2022/04/04 14:06:06;;;;;;;4.30;2.50;;;8.10;74.50;;;;;;9179987;19;20018;-62
2022/04/04 14:09:12;;;;;;;3.25;2.17;;;8.10;74.50;;;;;;9178249;19;20028;-62
2022/04/04 14:12:20;;;;;;;6.15;2.00;;;8.20;74.60;;;;;;9181796;19;20010;-62
2022/04/04 14:15:26;;;;;;;1.90;1.80;;;8.20;74.70;;;;;;9179149;19;20021;-62
2022/04/04 14:18:31;;;;;;;3.20;1.83;;;8.20;74.70;;;;;;9179380;19;20022;-63
2022/04/04 14:21:36;;;;;;;2.08;1.88;;;8.30;74.80;;;;;;9179295;19;20007;-62
2022/04/04 14:24:42;;;;;;;1.98;1.73;;;8.30;74.80;;;;;;9179124;19;20531;-62
2022/04/04 14:27:49;;;;;;;3.08;2.05;;;8.30;74.80;;;;;;9178750;19;20027;-62
2022/04/04 14:30:56;;;;;;;3.08;2.13;;;8.30;74.90;;;;;;9179036;19;20022;-63
2022/04/04 14:34:01;;;;;;;3.60;2.17;;;8.30;75.00;;;;;;9180325;19;20020;-63
2022/04/04 14:37:06;;;;;;;9.25;2.78;;;8.30;75.00;;;;;;9178490;19;20015;-63
2022/04/04 14:40:14;;;;;;;3.00;2.70;;;8.40;75.00;;;;;;9172194;19;20090;-64
2022/04/04 14:43:22;;;;;;;2.80;2.60;;;8.40;75.10;;;;;;9174589;19;20022;-63
2022/04/04 14:46:27;;;;;;;3.30;2.95;;;8.40;75.10;;;;;;9174906;19;20112;-63
2022/04/04 14:49:33;;;;;;;3.58;2.75;;;8.40;75.10;;;;;;9179256;19;20475;-63
2022/04/04 14:52:40;;;;;;;3.53;2.90;;;8.40;75.10;;;;;;9176550;19;20014;-63
2022/04/04 14:55:45;;;;;;;2.42;2.22;;;8.40;75.10;;;;;;9179667;19;20022;-62
2022/04/04 14:58:52;;;;;;;4.20;3.40;;;8.50;75.20;;;;;;9182481;19;21463;-63
2022/04/04 15:01:58;;;;;;;2.97;2.63;;;8.50;75.30;;;;;;9183099;19;20385;-63
2022/04/04 15:05:03;;;;;;;3.08;2.70;;;8.50;75.20;;;;;;9183032;19;20019;-62
2022/04/04 15:08:08;;;;;;;3.58;2.60;;;8.50;75.30;;;;;;9180013;19;20028;-63
2022/04/04 15:11:13;;;;;;;3.63;2.35;;;8.50;75.30;;;;;;9179024;19;20025;-62
2022/04/04 15:14:21;;;;;;;2.30;2.08;;;8.50;75.30;;;;;;9179948;19;20025;-64
2022/04/04 15:17:26;;;;;;;2.17;1.98;;;8.50;75.40;;;;;;9180070;19;20106;-62
2022/04/04 15:20:32;;;;;;;2.60;2.22;;;8.50;75.40;;;;;;9181150;19;20014;-62
2022/04/04 15:23:37;;;;;;;2.45;2.25;;;8.50;75.60;;;;;;9179448;19;20010;-62
2022/04/04 15:27:02;;;;;;;3.42;2.30;;;8.50;75.60;;;;;;9179549;19;20043;-63
2022/04/04 15:30:14;;;;;;;2.63;2.35;;;8.50;75.60;;;;;;9180048;19;20036;-62
2022/04/04 15:33:21;;;;;;;1.88;1.75;;;8.50;75.80;;;;;;9179702;19;20010;-63
2022/04/04 15:36:26;;;;;;;3.33;2.30;;;8.50;75.70;;;;;;9179694;19;20022;-62
2022/04/04 15:39:33;;;;;;;2.28;2.08;;;8.60;75.80;;;;;;9181081;19;20026;-64
2022/04/04 15:42:39;;;;;;;2.10;1.90;;;8.60;75.90;;;;;;9179266;19;20018;-62
2022/04/04 15:45:47;;;;;;;2.22;2.00;;;8.60;76.00;;;;;;9178548;19;20040;-63
2022/04/04 15:48:53;;;;;;;1.88;1.77;;;8.70;76.10;;;;;;9177934;19;20025;-62
2022/04/04 15:51:57;;;;;;;2.20;2.00;;;8.70;76.10;;;;;;9175831;19;20023;-62
2022/04/04 15:55:02;;;;;;;1.80;1.70;;;8.70;76.00;;;;;;9184060;19;20010;-63
2022/04/04 15:58:08;;;;;;;2.13;1.80;;;8.70;76.10;;;;;;9184853;19;20016;-62
2022/04/04 16:01:15;;;;;;;1.60;1.50;;;8.80;76.10;;;;;;9181821;19;20017;-63
2022/04/04 16:04:20;;;;;;;1.65;1.55;;;8.80;76.20;;;;;;9185247;19;20102;-62
2022/04/04 16:07:25;;;;;;;2.58;1.63;;;8.80;76.30;;;;;;9187216;19;20094;-68
2022/04/04 16:10:30;;;;;;;1.83;1.58;;;8.80;76.30;;;;;;9184152;19;20445;-64
2022/04/04 16:13:35;;;;;;;1.35;1.25;;;8.90;76.30;;;;;;9176036;19;20022;-62
2022/04/04 16:16:43;;;;;;;1.50;1.40;;;8.90;76.40;;;;;;9175857;19;20391;-63
2022/04/04 16:19:48;;;;;;;2.20;1.58;;;8.90;76.50;;;;;;9177076;19;20018;-64
2022/04/04 16:22:56;;;;;;;1.42;1.33;;;8.90;76.40;;;;;;9174021;19;20018;-64
2022/04/04 16:26:05;;;;;;;1.55;1.40;;;9.00;76.50;;;;;;9178559;19;20022;-65
2022/04/04 16:29:10;;;;;;;1.88;1.70;;;9.00;76.50;;;;;;9178734;19;20017;-62
2022/04/04 16:32:18;;;;;;;1.58;1.40;;;9.00;76.60;;;;;;9177906;19;20015;-62